createdAt,value
2023-04-26T00:00:19.677Z,30.130
2023-04-26T00:05:19.845Z,30.131
2023-04-26T00:10:16.685Z,30.134
2023-04-26T00:15:16.762Z,30.138
2023-04-26T00:20:16.797Z,30.143
2023-04-26T00:25:19.728Z,30.145
2023-04-26T00:30:19.734Z,30.149
2023-04-26T00:35:16.740Z,30.151
2023-04-26T00:40:19.788Z,30.155
2023-04-26T00:45:16.863Z,30.157
2023-04-26T00:50:19.800Z,30.159
2023-04-26T00:55:16.809Z,30.160
2023-04-26T01:00:19.765Z,30.163
2023-04-26T01:05:19.830Z,30.164
2023-04-26T01:10:19.746Z,30.168
2023-04-26T01:15:16.805Z,30.170
2023-04-26T01:20:19.855Z,30.172
2023-04-26T01:25:16.797Z,30.169
2023-04-26T01:30:19.800Z,30.169
2023-04-26T01:35:16.793Z,30.171
2023-04-26T01:40:19.768Z,30.171
2023-04-26T01:45:16.819Z,30.170
2023-04-26T01:50:19.800Z,30.171
2023-04-26T01:55:19.772Z,30.170
2023-04-26T02:00:19.747Z,30.170
2023-04-26T02:05:20.002Z,30.173
2023-04-26T02:10:19.771Z,30.171
2023-04-26T02:15:19.790Z,30.167
2023-04-26T02:20:16.844Z,30.164
2023-04-26T02:25:19.815Z,30.163
2023-04-26T02:30:16.801Z,30.162
2023-04-26T02:35:19.792Z,30.163
2023-04-26T02:40:19.792Z,30.163
2023-04-26T02:45:16.823Z,30.163
2023-04-26T02:50:16.863Z,30.166
2023-04-26T02:55:16.814Z,30.170
2023-04-26T03:00:19.819Z,30.170
2023-04-26T03:05:19.839Z,30.170
2023-04-26T03:10:16.849Z,30.172
2023-04-26T03:15:19.904Z,30.171
2023-04-26T03:20:19.803Z,30.171
2023-04-26T03:25:16.682Z,30.170
2023-04-26T03:30:19.789Z,30.171
2023-04-26T03:35:19.877Z,30.173
2023-04-26T03:40:19.792Z,30.177
2023-04-26T03:45:16.883Z,30.176
2023-04-26T03:50:16.846Z,30.177
2023-04-26T03:55:19.854Z,30.179
2023-04-26T04:00:19.146Z,30.179
2023-04-26T04:05:16.253Z,30.178
2023-04-26T04:10:19.157Z,30.179
2023-04-26T04:15:19.045Z,30.179
2023-04-26T04:20:19.090Z,30.180
2023-04-26T04:25:19.056Z,30.179
2023-04-26T04:30:19.129Z,30.179
2023-04-26T04:35:19.119Z,30.179
2023-04-26T04:40:19.094Z,30.180
2023-04-26T04:45:16.128Z,30.178
2023-04-26T04:50:16.183Z,30.178
2023-04-26T04:55:19.125Z,30.180
2023-04-26T05:00:16.107Z,30.181
2023-04-26T05:05:16.260Z,30.180
2023-04-26T05:10:16.118Z,30.177
2023-04-26T05:15:19.102Z,30.178
2023-04-26T05:20:16.120Z,30.175
2023-04-26T05:25:16.153Z,30.178
2023-04-26T05:30:19.158Z,30.179
2023-04-26T05:35:19.113Z,30.177
2023-04-26T05:40:16.191Z,30.177
2023-04-26T05:45:19.156Z,30.178
2023-04-26T05:50:19.209Z,30.177
2023-04-26T05:55:19.126Z,30.179
2023-04-26T06:00:16.167Z,30.177
2023-04-26T06:05:19.291Z,30.177
2023-04-26T06:10:19.141Z,30.176
2023-04-26T06:15:16.229Z,30.178
2023-04-26T06:20:19.154Z,30.179
2023-04-26T06:25:19.196Z,30.179
2023-04-26T06:30:19.205Z,30.181
2023-04-26T06:35:16.251Z,30.182
2023-04-26T06:40:19.131Z,30.180
2023-04-26T06:45:16.234Z,30.180
2023-04-26T06:50:19.166Z,30.181
2023-04-26T06:55:16.081Z,30.182
2023-04-26T07:00:19.421Z,30.183
2023-04-26T07:05:16.315Z,30.184
2023-04-26T07:10:19.186Z,30.185
2023-04-26T07:15:19.190Z,30.185
2023-04-26T07:20:16.176Z,30.185
2023-04-26T07:25:19.168Z,30.186
2023-04-26T07:30:19.270Z,30.186
2023-04-26T07:35:16.559Z,30.188
2023-04-26T07:40:19.156Z,30.188
2023-04-26T07:45:16.278Z,30.188
2023-04-26T07:50:16.210Z,30.188
2023-04-26T07:55:19.244Z,30.187
2023-04-26T08:00:16.043Z,30.188
2023-04-26T08:05:19.602Z,30.187
2023-04-26T08:10:16.252Z,30.187
2023-04-26T08:15:16.189Z,30.187
2023-04-26T08:20:19.259Z,30.187
2023-04-26T08:25:16.287Z,30.188
2023-04-26T08:30:19.354Z,30.188
2023-04-26T08:35:19.160Z,30.190
2023-04-26T08:40:16.225Z,30.189
2023-04-26T08:45:19.287Z,30.191
2023-04-26T08:50:16.336Z,30.192
2023-04-26T08:55:16.139Z,30.190
2023-04-26T09:00:19.218Z,30.191
2023-04-26T09:05:19.243Z,30.190
2023-04-26T09:10:19.339Z,30.192
2023-04-26T09:15:19.309Z,30.193
2023-04-26T09:20:19.258Z,30.194
2023-04-26T09:25:19.255Z,30.194
2023-04-26T09:30:16.256Z,30.194
2023-04-26T09:35:16.116Z,30.194
2023-04-26T09:40:19.292Z,30.196
2023-04-26T09:45:16.286Z,30.197
2023-04-26T09:50:19.370Z,30.198
2023-04-26T09:55:33.648Z,30.198
2023-04-26T10:00:16.273Z,30.201
2023-04-26T10:05:19.233Z,30.202
2023-04-26T10:10:16.277Z,30.205
2023-04-26T10:15:16.041Z,30.207
2023-04-26T10:20:16.319Z,30.209
2023-04-26T10:25:16.262Z,30.208
2023-04-26T10:30:16.404Z,30.210
2023-04-26T10:35:19.326Z,30.214
2023-04-26T10:40:19.305Z,30.214
2023-04-26T10:45:19.284Z,30.216
2023-04-26T10:50:16.314Z,30.217
2023-04-26T10:55:16.383Z,30.219
2023-04-26T11:00:19.344Z,30.218
2023-04-26T11:05:16.355Z,30.218
2023-04-26T11:10:19.590Z,30.220
2023-04-26T11:15:16.305Z,30.220
2023-04-26T11:20:16.303Z,30.221
2023-04-26T11:25:19.395Z,30.223
2023-04-26T11:30:16.315Z,30.221
2023-04-26T11:35:19.321Z,30.219
2023-04-26T11:40:19.368Z,30.220
2023-04-26T11:45:16.312Z,30.223
2023-04-26T11:50:19.360Z,30.222
2023-04-26T11:55:16.380Z,30.225
2023-04-26T12:00:19.336Z,30.225
2023-04-26T12:05:16.571Z,30.225
2023-04-26T12:10:19.349Z,30.228
2023-04-26T12:15:16.340Z,30.227
2023-04-26T12:20:19.349Z,30.226
2023-04-26T12:25:16.407Z,30.226
2023-04-26T12:30:19.368Z,30.226
2023-04-26T12:35:16.414Z,30.227
2023-04-26T12:40:19.369Z,30.228
2023-04-26T12:45:16.388Z,30.230
2023-04-26T12:50:19.422Z,30.232
2023-04-26T12:55:16.337Z,30.232
2023-04-26T13:00:19.402Z,30.232
2023-04-26T13:05:16.411Z,30.230
2023-04-26T13:10:19.420Z,30.230
2023-04-26T13:15:19.377Z,30.230
2023-04-26T13:20:16.406Z,30.230
2023-04-26T13:25:19.433Z,30.232
2023-04-26T13:30:16.134Z,30.233
2023-04-26T13:35:19.410Z,30.232
2023-04-26T13:40:16.382Z,30.232
2023-04-26T13:45:19.557Z,30.233
2023-04-26T13:50:19.444Z,30.234
2023-04-26T13:55:19.392Z,30.234
2023-04-26T14:00:16.515Z,30.235
2023-04-26T14:05:19.566Z,30.234
2023-04-26T14:10:16.292Z,30.235
2023-04-26T14:15:16.412Z,30.236
2023-04-26T14:20:19.386Z,30.234
2023-04-26T14:25:19.409Z,30.232
2023-04-26T14:30:19.350Z,30.232
2023-04-26T14:35:16.445Z,30.232
2023-04-26T14:40:19.423Z,30.231
2023-04-26T14:45:16.226Z,30.232
2023-04-26T14:50:16.248Z,30.231
2023-04-26T14:55:19.422Z,30.229
2023-04-26T15:00:19.418Z,30.229
2023-04-26T15:05:19.450Z,30.228
2023-04-26T15:10:16.434Z,30.226
2023-04-26T15:15:16.467Z,30.226
2023-04-26T15:20:19.589Z,30.226
2023-04-26T15:25:19.328Z,30.224
2023-04-26T15:30:16.438Z,30.222
2023-04-26T15:35:19.438Z,30.221
2023-04-26T15:40:16.601Z,30.220
2023-04-26T15:45:19.443Z,30.218
2023-04-26T15:50:19.450Z,30.217
2023-04-26T15:55:19.407Z,30.216
2023-04-26T16:00:16.449Z,30.212
2023-04-26T16:05:19.556Z,30.210
2023-04-26T16:10:19.418Z,30.209
2023-04-26T16:15:19.486Z,30.207
2023-04-26T16:20:16.423Z,30.206
2023-04-26T16:25:19.446Z,30.206
2023-04-26T16:30:16.489Z,30.206
2023-04-26T16:35:19.771Z,30.206
2023-04-26T16:40:16.534Z,30.207
2023-04-26T16:45:19.487Z,30.204
2023-04-26T16:50:19.430Z,30.203
2023-04-26T16:55:19.398Z,30.203
2023-04-26T17:00:19.435Z,30.200
2023-04-26T17:05:19.426Z,30.201
2023-04-26T17:10:19.444Z,30.200
2023-04-26T17:15:16.473Z,30.197
2023-04-26T17:20:16.562Z,30.197
2023-04-26T17:25:16.531Z,30.198
2023-04-26T17:30:16.483Z,30.198
2023-04-26T17:35:19.472Z,30.197
2023-04-26T17:40:19.463Z,30.198
2023-04-26T17:45:19.467Z,30.197
2023-04-26T17:50:19.496Z,30.197
2023-04-26T17:55:19.492Z,30.197
2023-04-26T18:00:19.511Z,30.198
2023-04-26T18:05:19.532Z,30.201
2023-04-26T18:10:19.492Z,30.200
2023-04-26T18:15:19.434Z,30.199
2023-04-26T18:20:19.462Z,30.200
2023-04-26T18:25:19.445Z,30.197
2023-04-26T18:30:16.503Z,30.194
2023-04-26T18:35:19.500Z,30.195
2023-04-26T18:40:16.335Z,30.194
2023-04-26T18:45:19.553Z,30.194
2023-04-26T18:50:19.533Z,30.193
2023-04-26T18:55:17.356Z,30.194
2023-04-26T19:00:16.652Z,30.188
2023-04-26T19:05:16.651Z,30.189
2023-04-26T19:10:19.539Z,30.189
2023-04-26T19:15:16.583Z,30.188
2023-04-26T19:20:19.536Z,30.187
2023-04-26T19:25:16.346Z,30.186
2023-04-26T19:30:19.629Z,30.183
2023-04-26T19:35:19.576Z,30.182
2023-04-26T19:40:19.506Z,30.183
2023-04-26T19:45:19.505Z,30.181
2023-04-26T19:50:19.521Z,30.178
2023-04-26T19:55:19.601Z,30.178
2023-04-26T20:00:19.489Z,30.175
2023-04-26T20:05:16.620Z,30.176
2023-04-26T20:10:16.582Z,30.178
2023-04-26T20:15:19.566Z,30.176
2023-04-26T20:20:19.796Z,30.174
2023-04-26T20:25:16.586Z,30.177
2023-04-26T20:30:16.554Z,30.175
2023-04-26T20:35:19.602Z,30.174
2023-04-26T20:40:19.594Z,30.175
2023-04-26T20:45:16.613Z,30.173
2023-04-26T20:50:19.565Z,30.175
2023-04-26T20:55:19.513Z,30.173
2023-04-26T21:00:19.582Z,30.177
2023-04-26T21:05:19.561Z,30.176
2023-04-26T21:10:19.520Z,30.176
2023-04-26T21:15:16.554Z,30.174
2023-04-26T21:20:19.587Z,30.177
2023-04-26T21:25:16.553Z,30.176
2023-04-26T21:30:16.587Z,30.178
2023-04-26T21:35:19.787Z,30.177
2023-04-26T21:40:19.668Z,30.176
2023-04-26T21:45:19.535Z,30.176
2023-04-26T21:50:19.547Z,30.177
2023-04-26T21:55:19.569Z,30.177
2023-04-26T22:00:16.611Z,30.178
2023-04-26T22:05:16.599Z,30.177
2023-04-26T22:10:19.592Z,30.178
2023-04-26T22:15:19.579Z,30.179
2023-04-26T22:20:19.614Z,30.176
2023-04-26T22:25:16.611Z,30.178
2023-04-26T22:30:24.994Z,30.179
2023-04-26T22:35:16.580Z,30.181
2023-04-26T22:40:19.635Z,30.180
2023-04-26T22:45:19.754Z,30.182
2023-04-26T22:50:19.643Z,30.182
2023-04-26T22:55:19.608Z,30.184
2023-04-26T23:00:19.564Z,30.183
2023-04-26T23:05:16.684Z,30.182
2023-04-26T23:10:19.680Z,30.185
2023-04-26T23:15:16.632Z,30.188
2023-04-26T23:20:19.667Z,30.190
2023-04-26T23:25:19.597Z,30.192
2023-04-26T23:30:19.619Z,30.196
2023-04-26T23:35:19.635Z,30.196
2023-04-26T23:40:16.651Z,30.196
2023-04-26T23:45:19.632Z,30.199
2023-04-26T23:50:16.696Z,30.207
2023-04-26T23:55:16.499Z,30.207
